^^
Datos históricos de la estación: Murcia-Puente Tocinos
Diario Informe para Octubre 26, 2021 Unidades:  Métrico    Ingés   Ambas
Diario Semanal Mensual Anual
  Máxima: Mínima: Promedio:
Temperatura: 20.6 °C 14.3 °C 17.1 °C
Punto de rocio: 16 °C 11.6 °C 13.4 °C
Humedad: 92% 64% 79%
Velocidad viento: 12.2km/h 0km/h 5.6km/h
Racha viento: 20.4km/h - -
Viento- - SE
Presión: 1022.3 hPa 1019.7 hPa -
Precipitación: 6.4 mm    
 
 
Tabla de datos para Octubre 26, 2021
Hora Temperatura Punto de rocio Presión Viento Velocidad viento Racha viento Humedad Intensidad lluvia(por hora) Nubes
00:04 16.1 °C 13.3 °C 1020.2 hPa ENE 3.2 km/h 4.7 km/h 83.5% 0.0 mm
00:09 16.1 °C 13.3 °C 1020.3 hPa ENE 2.9 km/h   84% 0.0 mm
00:14 16 °C 13.3 °C 1020.3 hPa ENE 2.3 km/h 4.7 km/h 84% 0.0 mm
00:19 15.9 °C 13.2 °C 1020.3 hPa ENE 1.5 km/h 1.9 km/h 84% 0.0 mm
00:24 15.9 °C 13.2 °C 1020.3 hPa Calm     84.1% 0.0 mm
00:29 15.9 °C 13.4 °C 1020.2 hPa Calm   2.3 km/h 85% 0.0 mm
00:34 15.9 °C 13.4 °C 1020.2 hPa Calm     85% 0.0 mm
00:39 15.9 °C 13.4 °C 1020.3 hPa Calm     85% 0.0 mm
00:44 15.9 °C 13.4 °C 1020.3 hPa Calm   3.9 km/h 85% 0.0 mm
00:49 15.9 °C 13.4 °C 1020.3 hPa ENE 0.9 km/h 3.9 km/h 85% 0.0 mm
00:54 15.9 °C 13.4 °C 1020.3 hPa ENE 2.3 km/h 3.7 km/h 85% 0.0 mm
00:59 15.9 °C 13.4 °C 1020.2 hPa ENE 1.3 km/h 3.9 km/h 85% 0.0 mm
01:04 15.9 °C 13.4 °C 1020.2 hPa Calm   5.6 km/h 85% 0.0 mm
01:09 15.9 °C 13.4 °C 1020.3 hPa ENE 1.1 km/h 3.9 km/h 85.1% 0.0 mm
01:14 15.9 °C 13.5 °C 1020.3 hPa ENE 2.9 km/h 5.8 km/h 85.7% 0.0 mm
01:19 15.9 °C 13.4 °C 1020.3 hPa ENE 3 km/h 5.8 km/h 85% 0.0 mm
01:24 15.8 °C 13.3 °C 1020.4 hPa ENE 3.2 km/h 7.4 km/h 85% 0.0 mm
01:29 15.8 °C 13.3 °C 1020.4 hPa ENE 3.5 km/h 7.4 km/h 85% 0.0 mm
01:34 15.8 °C 13.3 °C 1020.4 hPa ENE 3.9 km/h 5.6 km/h 85% 0.0 mm
01:39 15.8 °C 13.3 °C 1020.4 hPa ENE 3.6 km/h 4.7 km/h 85% 0.0 mm
01:44 15.8 °C 13.3 °C 1020.4 hPa ENE 3.2 km/h 1.9 km/h 85% 0.0 mm
01:49 15.7 °C 13.2 °C 1020.4 hPa ENE 2 km/h   85% 0.0 mm
01:54 15.7 °C 13.2 °C 1020.4 hPa Calm   3.9 km/h 85% 0.0 mm
01:59 15.7 °C 13.2 °C 1020.4 hPa Calm     85.1% 0.0 mm
02:04 15.7 °C 13.2 °C 1020.4 hPa Calm   5.8 km/h 85.1% 0.0 mm
02:09 15.6 °C 13.2 °C 1020.4 hPa ENE 1 km/h 5.6 km/h 85.4% 0.0 mm
02:14 15.6 °C 13.3 °C 1020.3 hPa ENE 2.9 km/h 5.6 km/h 86% 0.0 mm
02:19 15.5 °C 13 °C 1020.3 hPa ENE 2.9 km/h 5.8 km/h 85.3% 0.0 mm
02:24 15.3 °C 12.8 °C 1020.3 hPa ENE 2.9 km/h 5.6 km/h 85% 0.0 mm
02:29 15.2 °C 12.7 °C 1020.2 hPa Este 3.3 km/h 7.4 km/h 85% 0.0 mm
02:34 15.1 °C 12.7 °C 1020.2 hPa SE 3.9 km/h 9.5 km/h 85.4% 0.0 mm
02:39 14.9 °C 12.6 °C 1020.3 hPa SSE 4.8 km/h 10 km/h 86% 0.0 mm
02:44 14.8 °C 12.5 °C 1020.3 hPa Sur 6.4 km/h 10 km/h 86% 0.0 mm
02:49 14.8 °C 12.6 °C 1020.3 hPa Sur 6.4 km/h 9.3 km/h 86.6% 0.0 mm
02:54 14.8 °C 12.7 °C 1020.3 hPa Sur 6.4 km/h 7.6 km/h 87% 0.0 mm
02:59 14.8 °C 12.7 °C 1020.3 hPa Sur 5.9 km/h 7.4 km/h 87% 0.0 mm
03:04 14.9 °C 12.8 °C 1020.3 hPa SSO 5 km/h 5.8 km/h 87% 0.0 mm
03:09 14.9 °C 12.7 °C 1020.3 hPa SO 4.6 km/h 7.4 km/h 86.4% 0.0 mm
03:14 14.9 °C 12.6 °C 1020.3 hPa SSO 3.9 km/h 7.4 km/h 86% 0.0 mm
03:19 15 °C 12.6 °C 1020.3 hPa Sur 4.2 km/h 7.6 km/h 86% 0.0 mm
03:24 15 °C 12.7 °C 1020.3 hPa SO 4.7 km/h 7.4 km/h 86% 0.0 mm
03:29 15.1 °C 12.8 °C 1020.3 hPa OSO 4.7 km/h 7.4 km/h 86% 0.0 mm
03:34 15.1 °C 12.8 °C 1020.3 hPa OSO 4.7 km/h 7.4 km/h 86% 0.0 mm
03:39 15 °C 12.7 °C 1020.3 hPa Oeste 4.7 km/h 7.4 km/h 86% 0.0 mm
03:44 14.9 °C 12.6 °C 1020.2 hPa OSO 4.7 km/h 7.4 km/h 86% 0.0 mm
03:49 14.8 °C 12.5 °C 1020.2 hPa OSO 4.7 km/h 7.4 km/h 86% 0.0 mm
03:54 14.8 °C 12.5 °C 1020.3 hPa SSO 4.7 km/h 7.6 km/h 86% 0.0 mm
03:59 14.8 °C 12.5 °C 1020.3 hPa SSO 4.8 km/h 9.3 km/h 86% 0.0 mm
04:04 14.8 °C 12.5 °C 1020.3 hPa SO 5 km/h 8.4 km/h 86% 0.0 mm
04:09 14.9 °C 12.6 °C 1020.3 hPa SO 5 km/h 7.6 km/h 86% 0.0 mm
04:14 14.9 °C 12.6 °C 1020.1 hPa SO 5 km/h 7.4 km/h 86% 0.0 mm
04:19 14.9 °C 12.6 °C 1020.1 hPa Sur 4.6 km/h 7.6 km/h 86% 0.0 mm
04:24 14.9 °C 12.6 °C 1020.2 hPa SE 3.9 km/h 7.6 km/h 86% 0.0 mm
04:29 14.8 °C 12.5 °C 1020.2 hPa SSE 4.3 km/h 10 km/h 86% 0.0 mm
04:34 14.8 °C 12.5 °C 1020.2 hPa Sur 5 km/h 9.3 km/h 86% 0.0 mm
04:39 14.7 °C 12.4 °C 1020.2 hPa Sur 5.6 km/h 11.9 km/h 86% 0.0 mm
04:44 14.7 °C 12.4 °C 1020.2 hPa SSO 6.4 km/h 11.1 km/h 86.5% 0.0 mm
04:49 14.6 °C 12.4 °C 1020.2 hPa SSO 7.2 km/h 11.9 km/h 87% 0.0 mm
04:54 14.6 °C 12.4 °C 1020.2 hPa SSO 8.4 km/h 13 km/h 87% 0.0 mm
04:59 14.6 °C 12.4 °C 1020.1 hPa SSO 8.5 km/h 13 km/h 87% 0.0 mm
05:04 14.5 °C 12.3 °C 1020.1 hPa SSO 8.7 km/h 11.9 km/h 87% 0.0 mm
05:09 14.5 °C 12.3 °C 1020.1 hPa SSO 8.6 km/h 13 km/h 87% 0.0 mm
05:14 14.5 °C 12.3 °C 1020.1 hPa SO 8.4 km/h 10 km/h 87% 0.0 mm
05:19 14.5 °C 12.3 °C 1020.1 hPa SO 7.6 km/h 9.5 km/h 87% 0.0 mm
05:24 14.5 °C 12.3 °C 1020.1 hPa SO 6.4 km/h 11.1 km/h 86.6% 0.0 mm
05:29 14.5 °C 12.2 °C 1020.1 hPa SO 6.4 km/h 11.1 km/h 86% 0.0 mm
05:34 14.6 °C 12.2 °C 1020.1 hPa SO 6.4 km/h 10 km/h 86% 0.0 mm
05:39 14.6 °C 12.3 °C 1020.1 hPa SO 6.4 km/h 11.1 km/h 86% 0.0 mm
05:44 14.6 °C 12.3 °C 1019.9 hPa SO 6.4 km/h 11.9 km/h 86% 0.0 mm
05:49 14.6 °C 12.3 °C 1019.9 hPa SSO 6.2 km/h 8.7 km/h 86% 0.0 mm
05:54 14.6 °C 12.2 °C 1020.0 hPa SSO 5.8 km/h 9.3 km/h 86% 0.0 mm
05:59 14.6 °C 12.3 °C 1020.0 hPa Sur 5.8 km/h 9.5 km/h 86% 0.0 mm
06:04 14.6 °C 12.3 °C 1020.0 hPa Sur 5.8 km/h 10 km/h 86% 0.0 mm
06:09 14.5 °C 12.2 °C 1020.0 hPa SSO 5.8 km/h 7.6 km/h 86% 0.0 mm
06:14 14.5 °C 12.2 °C 1019.8 hPa SSO 5.8 km/h 7.4 km/h 86% 0.0 mm
06:19 14.5 °C 12.2 °C 1019.8 hPa SSO 5.4 km/h 8.7 km/h 86% 0.0 mm
06:24 14.5 °C 12.2 °C 1019.8 hPa SSO 4.7 km/h 9.3 km/h 86% 0.0 mm
06:29 14.6 °C 12.3 °C 1019.8 hPa SO 5.1 km/h 9.5 km/h 86% 0.0 mm
06:34 14.6 °C 12.3 °C 1019.8 hPa SO 5.8 km/h 11.9 km/h 86% 0.0 mm
06:39 14.6 °C 12.2 °C 1019.8 hPa SO 6.2 km/h 13 km/h 85.6% 0.0 mm
06:44 14.7 °C 12.2 °C 1019.8 hPa SO 6.9 km/h 10 km/h 85% 0.0 mm
06:49 14.7 °C 12.2 °C 1019.8 hPa SO 6.9 km/h 10 km/h 85% 0.0 mm
06:54 14.7 °C 12.2 °C 1019.8 hPa SO 6.9 km/h 10 km/h 85% 0.0 mm
06:59 14.7 °C 12 °C 1019.8 hPa SO 6.7 km/h 9.3 km/h 84% 0.0 mm
07:04 14.7 °C 12 °C 1019.8 hPa SSO 6.4 km/h 9.3 km/h 84% 0.0 mm
07:09 14.7 °C 12 °C 1019.9 hPa Sur 5.9 km/h 11.1 km/h 84% 0.0 mm
07:14 14.7 °C 12 °C 1019.9 hPa SSO 5 km/h 9.5 km/h 84% 0.0 mm
07:19 14.7 °C 12 °C 1019.9 hPa Sur 5.5 km/h 9.3 km/h 84% 0.0 mm
07:24 14.7 °C 12 °C 1020.0 hPa SSO 6.4 km/h 10 km/h 84% 0.0 mm
07:29 14.7 °C 12 °C 1020.0 hPa SSO 6.4 km/h 11.1 km/h 84% 0.0 mm
07:34 14.7 °C 12 °C 1020.0 hPa SSO 6.4 km/h 11.1 km/h 84% 0.0 mm
07:39 14.7 °C 12 °C 1020.0 hPa SSO 6.6 km/h 12.2 km/h 84% 0.0 mm
07:44 14.7 °C 12 °C 1019.9 hPa SSO 6.9 km/h 13 km/h 83.8% 0.0 mm
07:49 14.7 °C 11.8 °C 1019.9 hPa SSO 6.9 km/h 11.9 km/h 83.1% 0.0 mm
07:54 14.7 °C 11.8 °C 1020.0 hPa SSO 6.9 km/h 10 km/h 83% 0.0 mm
07:59 14.6 °C 11.8 °C 1020.0 hPa SO 6.7 km/h 10 km/h 83% 0.0 mm
08:04 14.6 °C 11.7 °C 1020.0 hPa SSO 6.4 km/h 9.5 km/h 83% 0.0 mm
08:09 14.6 °C 11.7 °C 1020.1 hPa SSO 6.2 km/h 11.9 km/h 83% 0.0 mm
08:14 14.5 °C 11.7 °C 1020.1 hPa SSO 5.8 km/h 9.5 km/h 83.4% 0.0 mm
08:19 14.4 °C 11.7 °C 1020.1 hPa SSO 6 km/h 13 km/h 84% 0.0 mm
08:24 14.4 °C 11.7 °C 1020.3 hPa SSO 6.4 km/h 11.9 km/h 84% 0.0 mm
08:29 14.4 °C 11.7 °C 1020.3 hPa SSO 6.6 km/h 10 km/h 84% 0.0 mm
08:34 14.4 °C 11.7 °C 1020.3 hPa SSO 6.9 km/h 13 km/h 84% 0.0 mm
08:39 14.3 °C 11.7 °C 1020.6 hPa SSO 7.4 km/h 13.7 km/h 84% 0.0 mm
08:44 14.3 °C 11.6 °C 1020.6 hPa SSO 8.4 km/h 15.6 km/h 84% 0.0 mm
08:49 14.4 °C 11.7 °C 1020.6 hPa SSO 9 km/h 16.7 km/h 84% 0.0 mm
08:54 14.4 °C 11.7 °C 1020.7 hPa SSO 10 km/h 13.7 km/h 84% 0.0 mm
08:59 14.6 °C 11.9 °C 1020.7 hPa SSO 10 km/h 18 km/h 84% 0.0 mm
09:04 14.7 °C 12 °C 1020.7 hPa SSO 10 km/h 18.5 km/h 84% 0.0 mm
09:09 14.7 °C 11.8 °C 1021.1 hPa SSO 10.4 km/h 18.5 km/h 83% 0.0 mm
09:14 14.7 °C 11.8 °C 1021.1 hPa SSO 11.1 km/h 18.5 km/h 83% 0.0 mm
09:19 14.7 °C 11.8 °C 1021.1 hPa SSO 11.5 km/h 18.5 km/h 83% 0.0 mm
09:24 14.7 °C 11.8 °C 1021.5 hPa SSO 12.2 km/h 19.8 km/h 83% 0.0 mm
09:29 14.7 °C 11.8 °C 1021.5 hPa SO 12.1 km/h 20.4 km/h 83% 0.0 mm
09:34 14.7 °C 11.8 °C 1021.5 hPa SSO 11.9 km/h 17.2 km/h 83% 0.0 mm
09:39 14.7 °C 11.8 °C 1021.7 hPa SO 11 km/h 16.7 km/h 83% 0.0 mm
09:44 14.8 °C 11.9 °C 1021.7 hPa SSO 9.5 km/h 13.7 km/h 83% 0.0 mm
09:49 14.8 °C 11.9 °C 1021.7 hPa SSO 9.5 km/h 13 km/h 83% 0.0 mm
09:54 14.9 °C 12 °C 1021.9 hPa SSO 9.5 km/h 14 km/h 83% 0.0 mm
09:59 15 °C 12.1 °C 1021.9 hPa SSO 8.7 km/h 14.8 km/h 83% 0.0 mm
10:04 15.1 °C 12.1 °C 1021.9 hPa SSO 7.6 km/h 13 km/h 82.2% 0.0 mm
10:09 15.2 °C 12.1 °C 1022.1 hPa SSO 7.6 km/h 13 km/h 82% 0.0 mm
10:14 15.3 °C 12.2 °C 1022.1 hPa SO 7.6 km/h 11.1 km/h 82% 0.0 mm
10:19 15.4 °C 12.3 °C 1022.1 hPa SO 7.6 km/h 13 km/h 82% 0.0 mm
10:24 15.5 °C 12.3 °C 1022.3 hPa OSO 7.6 km/h 11.1 km/h 81.4% 0.0 mm
10:29 15.6 °C 12.4 °C 1022.3 hPa OSO 6.9 km/h 9.5 km/h 81% 0.0 mm
10:34 15.7 °C 12.3 °C 1022.3 hPa SO 5.8 km/h 13 km/h 80.1% 0.0 mm
10:39 15.8 °C 12.4 °C 1022.3 hPa SSO 6 km/h 10 km/h 80% 0.0 mm
10:44 15.9 °C 12.5 °C 1022.2 hPa SSO 6.4 km/h 11.1 km/h 80% 0.0 mm
10:49 16.1 °C 12.4 °C 1022.2 hPa SO 6.4 km/h 11.1 km/h 79.2% 0.0 mm
10:54 16.1 °C 12.4 °C 1022.2 hPa SSO 6.4 km/h 11.1 km/h 79% 0.0 mm
10:59 16.1 °C 12.4 °C 1022.2 hPa SSO 6.6 km/h 11.9 km/h 78.8% 0.0 mm
11:04 16.1 °C 12.3 °C 1022.2 hPa SSO 6.9 km/h 11.1 km/h 78.2% 0.0 mm
11:09 16.1 °C 12.3 °C 1022.3 hPa SO 6.7 km/h 13 km/h 78% 0.0 mm
11:14 16.2 °C 12.3 °C 1022.3 hPa SO 6.4 km/h 11.1 km/h 78% 0.0 mm
11:19 16.2 °C 12.3 °C 1022.3 hPa SSO 6.6 km/h 10 km/h 78% 0.0 mm
11:24 16.3 °C 12.4 °C 1022.3 hPa SO 6.9 km/h 9.3 km/h 78% 0.0 mm
11:29 16.3 °C 12.5 °C 1022.3 hPa SO 6.5 km/h 11.1 km/h 78% 0.0 mm
11:34 16.4 °C 12.5 °C 1022.3 hPa SO 5.8 km/h 13 km/h 78% 0.0 mm
11:39 16.4 °C 12.5 °C 1022.3 hPa SO 6.8 km/h 14.8 km/h 77.8% 0.0 mm
11:44 16.4 °C 12.4 °C 1022.2 hPa SSO 8.4 km/h 13.7 km/h 77.4% 0.0 mm
11:49 16.5 °C 12.4 °C 1022.2 hPa SSO 8.4 km/h 13.7 km/h 77% 0.0 mm
11:54 16.6 °C 12.5 °C 1022.3 hPa SO 8.4 km/h 15.6 km/h 77% 0.0 mm
11:59 16.7 °C 12.6 °C 1022.3 hPa SSO 8 km/h 11.1 km/h 76.8% 0.0 mm
12:04 16.7 °C 12.5 °C 1022.3 hPa SSO 7.6 km/h 11.1 km/h 76.1% 0.0 mm
12:09 16.8 °C 12.6 °C 1022.3 hPa SSO 7.3 km/h 13 km/h 76.2% 0.0 mm
12:14 16.9 °C 12.7 °C 1022.2 hPa SSO 6.9 km/h 11.1 km/h 76% 0.0 mm
12:19 17 °C 12.7 °C 1022.2 hPa SSO 6.7 km/h 11.9 km/h 76% 0.0 mm
12:24 17.1 °C 12.6 °C 1022.2 hPa SO 6.4 km/h 11.1 km/h 75.2% 0.0 mm
12:29 17.1 °C 12.6 °C 1022.2 hPa SSO 6.6 km/h 13.7 km/h 75% 0.0 mm
12:34 17.2 °C 12.7 °C 1022.2 hPa SO 6.9 km/h 11.1 km/h 75% 0.0 mm
12:39 17.3 °C 12.8 °C 1022.2 hPa SSO 6.2 km/h 11.1 km/h 75% 0.0 mm
12:44 17.3 °C 12.9 °C 1022.1 hPa SSO 5 km/h 8.4 km/h 75% 0.0 mm
12:49 17.5 °C 12.9 °C 1022.1 hPa SSO 4.9 km/h 8.4 km/h 74.7% 0.0 mm
12:54 17.6 °C 12.9 °C 1022.1 hPa SSO 4.7 km/h 11.1 km/h 74.2% 0.0 mm
12:59 17.7 °C 13 °C 1021.8 hPa Sur 5.6 km/h 13.7 km/h 74% 0.0 mm
13:04 17.8 °C 13.1 °C 1021.8 hPa Sur 6.9 km/h 13.7 km/h 73.9% 0.0 mm
13:09 17.8 °C 13 °C 1021.8 hPa SSE 7.1 km/h 11.1 km/h 73.4% 0.0 mm
13:14 17.9 °C 13 °C 1021.8 hPa Sur 7.6 km/h 11.9 km/h 73% 0.0 mm
13:19 17.9 °C 13 °C 1021.8 hPa SSO 7.6 km/h 11.9 km/h 73% 0.0 mm
13:24 18 °C 13.1 °C 1021.8 hPa SSO 7.6 km/h 9.5 km/h 73% 0.0 mm
13:29 18.1 °C 13.1 °C 1021.4 hPa SO 6.6 km/h 5.8 km/h 72.6% 0.0 mm
13:34 18.2 °C 13.1 °C 1021.4 hPa SSO 5 km/h 7.6 km/h 72% 0.0 mm
13:39 18.3 °C 13.1 °C 1021.4 hPa SSE 4.6 km/h 7.4 km/h 71.8% 0.0 mm
13:44 18.4 °C 13.1 °C 1021.2 hPa SSE 3.9 km/h 10 km/h 71% 0.0 mm
13:49 18.6 °C 13.2 °C 1021.2 hPa SSE 4.6 km/h 9.3 km/h 71% 0.0 mm
13:54 18.7 °C 13.2 °C 1021.2 hPa SE 5.8 km/h 7.4 km/h 70.7% 0.0 mm
13:59 18.7 °C 13.1 °C 1020.9 hPa SSE 5.3 km/h 9.5 km/h 70% 0.0 mm
14:04 18.8 °C 13.2 °C 1020.9 hPa SE 4.7 km/h 13 km/h 70% 0.0 mm
14:09 18.8 °C 13.2 °C 1020.9 hPa SE 6.1 km/h 13 km/h 70% 0.0 mm
14:14 18.8 °C 13.2 °C 1020.9 hPa SE 8.7 km/h 11.1 km/h 70% 0.0 mm
14:19 18.8 °C 13.2 °C 1020.9 hPa SSE 8.3 km/h 11.9 km/h 70% 0.0 mm
14:24 18.8 °C 13.2 °C 1020.9 hPa SE 7.6 km/h 11.1 km/h 70% 0.0 mm
14:29 18.9 °C 13.3 °C 1020.8 hPa SE 7.6 km/h 11.1 km/h 70% 0.0 mm
14:34 18.9 °C 13.1 °C 1020.8 hPa SSE 7.6 km/h 11.1 km/h 69.1% 0.0 mm
14:39 19 °C 13.2 °C 1020.8 hPa SSE 7.3 km/h 10 km/h 69% 0.0 mm
14:44 19.2 °C 13.3 °C 1020.6 hPa SE 6.9 km/h 10.3 km/h 69% 0.0 mm
14:49 19.2 °C 13.2 °C 1020.6 hPa SE 6.9 km/h 11.9 km/h 68.1% 0.0 mm
14:54 19.3 °C 13.2 °C 1020.6 hPa SE 6.9 km/h 9.5 km/h 68% 0.0 mm
14:59 19.3 °C 13.3 °C 1020.5 hPa SSE 6.1 km/h 8.7 km/h 68% 0.0 mm
15:04 19.4 °C 13.2 °C 1020.5 hPa SSE 5 km/h 9.3 km/h 67.3% 0.0 mm
15:09 19.5 °C 13.2 °C 1020.5 hPa SSE 5.3 km/h 8.4 km/h 67% 0.0 mm
15:14 19.6 °C 13.1 °C 1020.3 hPa Sur 5.8 km/h 5.6 km/h 66% 0.0 mm
15:19 19.7 °C 13.2 °C 1020.3 hPa Sur 4.8 km/h 6.4 km/h 66% 0.0 mm
15:24 19.8 °C 13.1 °C 1020.3 hPa SSE 3.2 km/h 7.4 km/h 65.1% 0.0 mm
15:29 19.9 °C 13.1 °C 1020.1 hPa SE 3.4 km/h 7.4 km/h 65% 0.0 mm
15:34 20.1 °C 13.3 °C 1020.1 hPa SE 3.9 km/h 5.8 km/h 65% 0.0 mm
15:39 20.1 °C 13.3 °C 1020.1 hPa SE 3.6 km/h 5.8 km/h 65% 0.0 mm
15:44 20.2 °C 13.4 °C 1020.0 hPa Este 3.2 km/h 5.6 km/h 65% 0.0 mm
15:49 20.3 °C 13.4 °C 1020.0 hPa Este 2.9 km/h 3.9 km/h 64.4% 0.0 mm
15:54 20.4 °C 13.3 °C 1020.0 hPa NE 2.3 km/h 9.3 km/h 64% 0.0 mm
15:59 20.4 °C 13.3 °C 1019.8 hPa North 3.4 km/h 11.1 km/h 64% 0.0 mm
16:04 20.4 °C 13.5 °C 1019.8 hPa NNE 5 km/h 11.9 km/h 64.7% 0.0 mm
16:09 20.4 °C 13.6 °C 1019.8 hPa North 5.7 km/h 11.1 km/h 65% 0.0 mm
16:14 20.4 °C 13.7 °C 1019.7 hPa North 6.9 km/h 11.1 km/h 65.3% 0.0 mm
16:19 20.4 °C 13.8 °C 1019.7 hPa NNE 6.5 km/h 11.1 km/h 65.9% 0.0 mm
16:24 20.4 °C 13.8 °C 1019.7 hPa NE 5.8 km/h 10.3 km/h 66% 0.0 mm
16:29 20.4 °C 14 °C 1019.7 hPa NE 6.2 km/h 11.1 km/h 66.6% 0.0 mm
16:34 20.4 °C 14.1 °C 1019.7 hPa NNE 6.9 km/h 9.3 km/h 67% 0.0 mm
16:39 20.4 °C 14.1 °C 1019.8 hPa NNE 6.7 km/h 11.9 km/h 67% 0.0 mm
16:44 20.4 °C 14.1 °C 1019.8 hPa NNE 6.4 km/h 9.5 km/h 67% 0.0 mm
16:49 20.4 °C 14.1 °C 1019.8 hPa NNE 6.4 km/h 11.9 km/h 67.3% 0.0 mm
16:54 20.4 °C 14.3 °C 1019.8 hPa NNE 6.4 km/h 10 km/h 68% 0.0 mm
16:59 20.4 °C 14.3 °C 1019.8 hPa NE 6.4 km/h 9.3 km/h 68% 0.0 mm
17:04 20.5 °C 14.4 °C 1019.8 hPa NE 6.4 km/h 10 km/h 68% 0.0 mm
17:09 20.5 °C 14.4 °C 1019.8 hPa NE 6.4 km/h 13 km/h 68% 0.0 mm
17:14 20.6 °C 14.5 °C 1019.7 hPa NE 6.4 km/h 13 km/h 68% 0.0 mm
17:19 20.6 °C 14.5 °C 1019.7 hPa NE 6.6 km/h 11.9 km/h 68% 0.0 mm
17:24 20.6 °C 14.5 °C 1019.7 hPa NE 6.9 km/h 13 km/h 68% 0.0 mm
17:29 20.5 °C 14.3 °C 1019.7 hPa NE 7.5 km/h 12.2 km/h 67.3% 0.0 mm
17:34 20.5 °C 14.4 °C 1019.7 hPa NE 8.4 km/h 11.9 km/h 68% 0.0 mm
17:39 20.4 °C 14.3 °C 1019.8 hPa NE 8.1 km/h 13 km/h 68% 0.0 mm
17:44 20.4 °C 14.3 °C 1019.8 hPa NNE 7.6 km/h 13 km/h 68% 0.0 mm
17:49 20.3 °C 14.3 °C 1019.8 hPa NNE 7.6 km/h 11.9 km/h 68.3% 0.0 mm
17:54 20.3 °C 14.4 °C 1019.9 hPa NE 7.6 km/h 13.7 km/h 69% 0.0 mm
17:59 20.2 °C 14.4 °C 1019.9 hPa NNE 7.3 km/h 9.5 km/h 69% 0.0 mm
18:04 20.2 °C 14.3 °C 1019.9 hPa NE 6.9 km/h 12.2 km/h 69% 0.0 mm
18:09 20.2 °C 14.3 °C 1020.0 hPa NE 6.7 km/h 13 km/h 69% 0.0 mm
18:14 20.2 °C 14.3 °C 1020.0 hPa NE 6.4 km/h 13 km/h 69% 0.0 mm
18:19 20.2 °C 14.3 °C 1020.0 hPa NNE 6.6 km/h 10 km/h 69% 0.0 mm
18:24 20.1 °C 14.3 °C 1020.0 hPa NNE 6.9 km/h 9.3 km/h 69.2% 0.0 mm
18:29 20.1 °C 14.4 °C 1020.0 hPa NNE 6.5 km/h 9.5 km/h 70% 0.0 mm
18:34 20.1 °C 14.4 °C 1020.0 hPa NE 5.8 km/h 9.3 km/h 70% 0.0 mm
18:39 20 °C 14.3 °C 1020.0 hPa NE 5.8 km/h 9.5 km/h 70% 0.0 mm
18:44 19.9 °C 14.3 °C 1020.0 hPa NNE 5.8 km/h 9.3 km/h 70% 0.0 mm
18:49 19.9 °C 14.4 °C 1020.0 hPa NNE 5.8 km/h 9.3 km/h 70.5% 0.0 mm
18:54 19.8 °C 14.4 °C 1020.1 hPa NNE 5.8 km/h 9.3 km/h 71% 0.0 mm
18:59 19.8 °C 14.4 °C 1020.1 hPa NNE 5.8 km/h 10 km/h 71% 0.0 mm
19:04 19.7 °C 14.4 °C 1020.1 hPa NNE 5.8 km/h 13 km/h 71.5% 0.0 mm
19:09 19.7 °C 14.5 °C 1020.1 hPa NNE 6.7 km/h 13 km/h 72% 0.0 mm
19:14 19.7 °C 14.5 °C 1020.1 hPa NNE 8.4 km/h 13.7 km/h 72% 0.0 mm
19:19 19.7 °C 14.5 °C 1020.1 hPa NNE 8.5 km/h 13.7 km/h 72% 0.0 mm
19:24 19.6 °C 14.4 °C 1020.2 hPa NNE 8.7 km/h 15.6 km/h 72.1% 0.0 mm
19:29 19.6 °C 14.6 °C 1020.2 hPa NNE 8.6 km/h 13.7 km/h 73% 0.0 mm
19:34 19.6 °C 14.6 °C 1020.2 hPa NNE 8.4 km/h 13 km/h 73% 0.0 mm
19:39 19.5 °C 14.7 °C 1020.2 hPa NNE 8.1 km/h 11.1 km/h 73.9% 0.0 mm
19:44 19.4 °C 14.7 °C 1020.2 hPa NNE 7.6 km/h 7.6 km/h 74% 0.0 mm
19:49 19.3 °C 14.8 °C 1020.2 hPa North 6.6 km/h 8.4 km/h 74.9% 0.0 mm
19:54 19.3 °C 14.8 °C 1020.3 hPa NNE 5 km/h 8.4 km/h 75% 0.0 mm
19:59 19.3 °C 14.9 °C 1020.3 hPa NE 4.9 km/h 5.8 km/h 76% 0.0 mm
20:04 19.2 °C 14.9 °C 1020.3 hPa NE 4.7 km/h 5.6 km/h 76% 0.0 mm
20:09 19.2 °C 14.9 °C 1020.4 hPa NE 3.8 km/h 3.9 km/h 76% 0.0 mm
20:14 19.2 °C 15 °C 1020.4 hPa NE 2.3 km/h 4.7 km/h 76.7% 0.0 mm
20:19 19.2 °C 15.1 °C 1020.4 hPa NE 2.5 km/h 7.6 km/h 77% 0.0 mm
20:24 19.1 °C 15.1 °C 1020.7 hPa NE 2.9 km/h 9.5 km/h 77.5% 0.0 mm
20:27 19.1 °C 15.2 °C 1020.7 hPa NE 2.9 km/h 9.3 km/h 78% 0.0 mm
20:34 19.1 °C 15.2 °C 1020.7 hPa NE 5.8 km/h 9.3 km/h 78% 0.0 mm
20:39 19.1 °C 15.3 °C 1020.7 hPa NNE 5.8 km/h 9.5 km/h 78.9% 0.0 mm
20:44 19 °C 15.3 °C 1020.7 hPa NE 5.8 km/h 8.4 km/h 79% 0.0 mm
20:49 18.9 °C 15.2 °C 1020.7 hPa NNE 5.5 km/h 8.4 km/h 79% 0.0 mm
20:54 18.9 °C 15.2 °C 1020.8 hPa NNE 5 km/h 5.8 km/h 79% 0.0 mm
20:59 18.8 °C 15.1 °C 1020.8 hPa NNE 4.5 km/h 5.8 km/h 79.4% 0.0 mm
21:04 18.8 °C 15.3 °C 1020.8 hPa ENE 3.9 km/h 7.4 km/h 80% 0.0 mm
21:09 18.8 °C 15.3 °C 1020.9 hPa NE 3.5 km/h 5.8 km/h 80% 0.0 mm
21:14 18.7 °C 15.2 °C 1020.9 hPa NE 2.9 km/h 5.8 km/h 80% 0.0 mm
21:19 18.7 °C 15.2 °C 1020.9 hPa NE 3 km/h 5.8 km/h 80% 0.0 mm
21:24 18.7 °C 15.2 °C 1020.9 hPa NE 3.2 km/h 5.6 km/h 80% 0.0 mm
21:29 18.7 °C 15.2 °C 1020.8 hPa NE 2.8 km/h 1.9 km/h 80% 0.0 mm
21:34 18.7 °C 15.3 °C 1020.8 hPa NE 2.3 km/h   80.7% 0.0 mm
21:39 18.7 °C 15.4 °C 1020.8 hPa NE 1.4 km/h   81% 0.0 mm
21:44 18.7 °C 15.4 °C 1020.8 hPa Calm   5 km/h 81% 0.0 mm
21:49 18.7 °C 15.4 °C 1020.8 hPa NE 1.1 km/h 6.4 km/h 81% 0.0 mm
21:54 18.7 °C 15.4 °C 1020.8 hPa NE 2.9 km/h 7.4 km/h 81% 0.0 mm
21:59 18.7 °C 15.4 °C 1020.8 hPa NE 3 km/h 4.7 km/h 81% 0.0 mm
22:04 18.7 °C 15.4 °C 1020.8 hPa NE 3.2 km/h 3.9 km/h 81% 0.0 mm
22:09 18.7 °C 15.4 °C 1021.0 hPa NE 2.9 km/h 5.8 km/h 81% 0.0 mm
22:14 18.7 °C 15.4 °C 1021.0 hPa NE 2.3 km/h 13 km/h 81% 0.3 mm
22:19 18.7 °C 15.6 °C 1021.0 hPa NNO 3.8 km/h 13.7 km/h 82.2% 1.8 mm
22:24 18.5 °C 15.6 °C 1021.0 hPa ONO 6.4 km/h 10 km/h 83.6% 3.1 mm
22:29 18.3 °C 15.6 °C 1021.0 hPa NO 5.9 km/h 9.3 km/h 84.3% 3.1 mm
22:34 18.2 °C 15.7 °C 1021.0 hPa NE 5 km/h 12.2 km/h 85.4% 3.1 mm
22:39 17.9 °C 15.7 °C 1021.3 hPa NNE 5.7 km/h 14 km/h 86.5% 3.8 mm
22:44 17.8 °C 15.8 °C 1021.3 hPa NO 6.9 km/h 14.8 km/h 87.6% 4.9 mm
22:49 17.7 °C 15.8 °C 1021.3 hPa NNO 6.7 km/h 9.3 km/h 88.4% 4.9 mm
22:54 17.7 °C 15.9 °C 1021.6 hPa NNE 6.4 km/h 8.4 km/h 89% 5.1 mm
22:59 17.6 °C 15.9 °C 1021.6 hPa ENE 5.7 km/h 7.6 km/h 89.8% 5.1 mm
23:04 17.6 °C 15.9 °C 1021.6 hPa ENE 4.7 km/h 8.4 km/h 90% 5.1 mm
23:09 17.5 °C 15.9 °C 1021.7 hPa NE 4.4 km/h 7.4 km/h 90.3% 5.1 mm
23:14 17.5 °C 16 °C 1021.7 hPa NE 3.9 km/h 4.7 km/h 91% 5.1 mm
23:19 17.4 °C 15.9 °C 1021.7 hPa NE 3.3 km/h 3.9 km/h 91% 4.6 mm
23:24 17.4 °C 15.9 °C 1021.8 hPa ENE 2.3 km/h 5.8 km/h 91% 2.5 mm
23:29 17.4 °C 15.9 °C 1021.8 hPa SE 2.6 km/h 7.6 km/h 91% 3.0 mm
23:34 17.3 °C 15.9 °C 1021.8 hPa SSO 3.2 km/h 7.4 km/h 91.1% 3.0 mm
23:39 17.3 °C 16 °C 1021.8 hPa SSO 2.8 km/h 3.9 km/h 92% 3.0 mm
23:44 17.3 °C 16 °C 1021.8 hPa SSO 2.3 km/h 5.6 km/h 92% 1.7 mm
23:49 17.3 °C 16 °C 1021.8 hPa Sur 2.6 km/h 5.8 km/h 92% 1.2 mm
23:54 17.3 °C 16 °C 1021.8 hPa Sur 3.2 km/h 3.9 km/h 92% 1.3 mm
23:59 17.3 °C 16 °C 1021.8 hPa SSE 2.8 km/h 5 km/h 92% 1.3 mm
Murcia-Puente Tocinos, Espa?a
Compliments of Weather Underground - 3 mb

La estación de MeteoMurcia.com, publica sus datos en los siguientes proyectos:

Weather Underground PWS IMURCIAP2 Meteoclimatic www.awekas.at

W3Counter
Web Analytics